Time;durP1;ratioP1;P1;durP2;ratioP2;P2;SDS_P1;SDS_P2;PMS_P1;PMS_P2;Temp;Humidity;BMP_temperature;BMP_pressure;BME280_temperature;BME280_humidity;BME280_pressure;Samples;Min_cycle;Max_cycle;Signal;HPM_P1;HPM_P2
2022/04/03 00:00:20;;;;;;;8.35;3.35;;;20.90;99.90;;;;;;4160419;28;20049;-69
2022/04/03 00:02:29;;;;;;;5.72;3.13;;;21.00;99.90;;;;;;4177729;28;20666;-70
2022/04/03 00:04:35;;;;;;;6.93;3.38;;;21.00;99.90;;;;;;4174511;28;20515;-69
2022/04/03 00:06:40;;;;;;;6.93;3.83;;;21.00;99.90;;;;;;4184948;28;20650;-69
2022/04/03 00:08:47;;;;;;;6.13;4.25;;;21.00;99.90;;;;;;4176512;28;20065;-69
2022/04/03 00:10:54;;;;;;;6.97;4.13;;;21.00;99.90;;;;;;4185899;28;20041;-69
2022/04/03 00:12:59;;;;;;;4.80;4.00;;;20.90;99.50;;;;;;4187656;28;20049;-69
2022/04/03 00:15:06;;;;;;;7.22;4.35;;;21.00;99.30;;;;;;4170718;28;20127;-70
2022/04/03 00:17:13;;;;;;;5.75;4.10;;;20.90;99.30;;;;;;4176709;28;20036;-70
2022/04/03 00:19:17;;;;;;;6.05;3.97;;;21.00;99.10;;;;;;4174867;28;20156;-70
2022/04/03 00:21:24;;;;;;;4.32;3.83;;;20.90;98.50;;;;;;4158725;28;20618;-70
2022/04/03 00:23:31;;;;;;;8.57;3.97;;;21.00;98.70;;;;;;4177142;28;20718;-71
2022/04/03 00:25:37;;;;;;;5.28;3.53;;;21.00;99.00;;;;;;4172833;28;20041;-70
2022/04/03 00:27:43;;;;;;;5.85;4.10;;;20.90;99.30;;;;;;4174538;28;20122;-70
2022/04/03 00:29:50;;;;;;;5.18;3.35;;;20.80;99.50;;;;;;4175048;28;20530;-70
2022/04/03 00:31:54;;;;;;;4.43;3.10;;;20.80;99.20;;;;;;4157662;28;20639;-70
2022/04/03 00:33:59;;;;;;;8.60;3.50;;;20.50;99.50;;;;;;4186244;28;20454;-69
2022/04/03 00:36:04;;;;;;;5.07;3.30;;;20.50;99.70;;;;;;4172887;28;20124;-70
2022/04/03 00:38:09;;;;;;;5.82;4.03;;;20.50;99.40;;;;;;4175256;28;20103;-71
2022/04/03 00:40:14;;;;;;;6.30;3.58;;;20.40;99.80;;;;;;4176900;28;20041;-70
2022/04/03 00:42:19;;;;;;;4.30;3.28;;;20.60;99.30;;;;;;4175532;28;20036;-70
2022/04/03 00:44:24;;;;;;;5.93;3.20;;;20.60;99.40;;;;;;4175385;28;20043;-70
2022/04/03 00:46:29;;;;;;;6.93;3.28;;;20.70;99.10;;;;;;4170904;28;20041;-69
2022/04/03 00:48:33;;;;;;;4.03;2.97;;;20.70;99.30;;;;;;4175846;28;20037;-71
2022/04/03 00:50:38;;;;;;;4.28;2.95;;;20.70;99.40;;;;;;4189448;28;20104;-71
2022/04/03 00:52:42;;;;;;;4.45;3.15;;;20.80;99.00;;;;;;4158153;28;20049;-70
2022/04/03 00:54:47;;;;;;;4.70;3.47;;;20.70;98.30;;;;;;4157874;28;20678;-70
2022/04/03 00:56:52;;;;;;;3.33;2.78;;;20.60;98.40;;;;;;4174037;28;20668;-70
2022/04/03 00:58:57;;;;;;;3.80;2.63;;;20.60;98.70;;;;;;4187558;28;20599;-69
2022/04/03 01:01:02;;;;;;;3.60;2.47;;;20.70;98.40;;;;;;4168285;28;20132;-68
2022/04/03 01:03:07;;;;;;;5.32;2.80;;;20.90;98.40;;;;;;4172779;28;20080;-69
2022/04/03 01:05:12;;;;;;;3.95;2.97;;;21.10;98.20;;;;;;4160028;28;20124;-69
2022/04/03 01:07:16;;;;;;;4.97;2.35;;;21.20;98.10;;;;;;4147803;28;20058;-68
2022/04/03 01:09:22;;;;;;;3.25;2.45;;;21.30;97.80;;;;;;4178741;28;20044;-69
2022/04/03 01:11:28;;;;;;;3.53;2.78;;;21.20;97.30;;;;;;4180402;28;20115;-68
2022/04/03 01:13:32;;;;;;;4.85;2.75;;;21.20;97.40;;;;;;4161289;28;20532;-69
2022/04/03 01:15:37;;;;;;;4.97;2.75;;;21.10;97.70;;;;;;4173306;28;20079;-70
2022/04/03 01:17:44;;;;;;;6.63;2.83;;;21.10;97.50;;;;;;4174294;28;20106;-69
2022/04/03 01:19:50;;;;;;;4.75;2.72;;;21.00;97.30;;;;;;4177904;28;20496;-69
2022/04/03 01:21:55;;;;;;;3.88;2.85;;;21.10;97.50;;;;;;4173240;28;21681;-70
2022/04/03 01:23:59;;;;;;;4.57;3.10;;;20.90;96.60;;;;;;4175208;28;20072;-71
2022/04/03 01:26:05;;;;;;;6.00;3.17;;;20.80;97.40;;;;;;4154902;28;20042;-71
2022/04/03 01:28:10;;;;;;;3.92;2.70;;;21.00;97.10;;;;;;4158860;28;20134;-71
2022/04/03 01:30:17;;;;;;;6.93;2.53;;;21.00;96.80;;;;;;4176309;28;20087;-71
2022/04/03 01:32:24;;;;;;;5.22;2.90;;;21.00;96.90;;;;;;4160284;28;20059;-71
2022/04/03 01:34:30;;;;;;;4.22;2.88;;;21.00;96.50;;;;;;4155664;28;20038;-70
2022/04/03 01:36:34;;;;;;;4.63;2.70;;;21.00;96.60;;;;;;4176625;28;20057;-71
2022/04/03 01:38:40;;;;;;;6.03;2.70;;;21.10;96.80;;;;;;4175104;28;20065;-71
2022/04/03 01:40:45;;;;;;;3.88;2.85;;;21.20;96.40;;;;;;4185572;28;20051;-72
2022/04/03 01:42:51;;;;;;;10.65;2.60;;;21.10;96.20;;;;;;4175522;28;20037;-70
2022/04/03 01:44:58;;;;;;;8.68;3.65;;;21.10;96.10;;;;;;4177095;28;20715;-71
2022/04/03 01:47:04;;;;;;;6.47;3.70;;;21.20;96.40;;;;;;4177428;28;20041;-71
2022/04/03 01:49:09;;;;;;;6.47;3.78;;;21.30;96.10;;;;;;4162042;28;20504;-66
2022/04/03 01:51:13;;;;;;;7.43;3.10;;;21.40;96.10;;;;;;4156503;28;20376;-70
2022/04/03 01:53:19;;;;;;;7.25;3.30;;;21.40;96.10;;;;;;4176754;28;20059;-72
2022/04/03 01:55:25;;;;;;;4.53;2.90;;;21.30;96.10;;;;;;4149565;28;20049;-71
2022/04/03 01:57:30;;;;;;;4.07;2.80;;;21.10;96.40;;;;;;4170191;28;20134;-71
2022/04/03 01:59:36;;;;;;;3.80;2.63;;;20.90;96.70;;;;;;4155827;28;20096;-71
2022/04/03 02:01:44;;;;;;;3.40;2.60;;;21.00;96.40;;;;;;4113266;28;21097;-71
2022/04/03 02:03:50;;;;;;;8.13;3.70;;;21.10;96.70;;;;;;4173590;28;20132;-71
2022/04/03 02:05:57;;;;;;;4.95;3.17;;;21.20;96.30;;;;;;4173256;28;20506;-67
2022/04/03 02:08:01;;;;;;;7.18;3.00;;;21.50;95.70;;;;;;4173205;28;20045;-72
2022/04/03 02:10:09;;;;;;;4.95;3.08;;;21.50;95.20;;;;;;4173367;28;20061;-71
2022/04/03 02:12:13;;;;;;;5.00;3.05;;;21.70;95.30;;;;;;4151358;28;20190;-71
2022/04/03 02:14:24;;;;;;;5.53;3.08;;;21.70;95.40;;;;;;4170086;28;20045;-71
2022/04/03 02:16:32;;;;;;;4.30;3.00;;;21.70;95.60;;;;;;4167633;28;20049;-72
2022/04/03 02:18:37;;;;;;;7.00;2.97;;;21.70;94.40;;;;;;4169274;28;20051;-70
2022/04/03 02:20:43;;;;;;;5.65;3.47;;;21.60;95.60;;;;;;4171367;28;20120;-71
2022/04/03 02:22:50;;;;;;;3.38;2.75;;;21.50;94.80;;;;;;4179041;28;20072;-70
2022/04/03 02:24:55;;;;;;;4.28;2.40;;;21.50;94.40;;;;;;4173117;28;20537;-71
2022/04/03 02:27:02;;;;;;;5.75;2.80;;;21.30;94.90;;;;;;4165711;28;20053;-71
2022/04/03 02:29:09;;;;;;;4.65;2.95;;;21.30;95.00;;;;;;4172270;28;20115;-71
2022/04/03 02:31:14;;;;;;;4.75;2.95;;;21.20;94.60;;;;;;4171980;28;20096;-70
2022/04/03 02:33:19;;;;;;;4.25;3.08;;;21.30;95.00;;;;;;4177510;28;20720;-70
2022/04/03 02:35:26;;;;;;;5.28;2.95;;;21.40;94.20;;;;;;4174664;28;20059;-71
2022/04/03 02:37:31;;;;;;;4.70;3.42;;;21.50;94.00;;;;;;4177395;28;20041;-71
2022/04/03 02:39:36;;;;;;;6.45;3.40;;;21.30;93.80;;;;;;4169597;28;20055;-71
2022/04/03 02:41:41;;;;;;;9.07;3.08;;;21.30;93.40;;;;;;4176863;28;20040;-73
2022/04/03 02:43:46;;;;;;;4.80;2.80;;;21.30;93.40;;;;;;4189125;28;20051;-73
2022/04/03 02:45:50;;;;;;;5.47;3.28;;;21.50;93.60;;;;;;4175470;28;20124;-73
2022/04/03 02:47:56;;;;;;;4.38;2.90;;;21.30;92.80;;;;;;4178335;28;20049;-71
2022/04/03 02:50:00;;;;;;;4.35;2.83;;;21.20;93.50;;;;;;4180519;28;20092;-71
2022/04/03 02:52:07;;;;;;;4.13;2.58;;;21.30;93.30;;;;;;4160282;28;20412;-71
2022/04/03 02:54:13;;;;;;;4.18;2.78;;;21.40;92.80;;;;;;4176249;28;20052;-71
2022/04/03 02:56:20;;;;;;;6.47;2.75;;;21.50;93.60;;;;;;4176961;28;20041;-71
2022/04/03 02:58:25;;;;;;;4.05;2.60;;;21.50;92.60;;;;;;4176515;28;20487;-72
2022/04/03 03:00:33;;;;;;;8.38;3.30;;;21.40;93.30;;;;;;4174688;28;20072;-72
2022/04/03 03:02:37;;;;;;;4.57;3.00;;;21.50;93.40;;;;;;4177845;28;20407;-72
2022/04/03 03:04:44;;;;;;;3.60;2.83;;;21.60;93.40;;;;;;4155229;28;20128;-71
2022/04/03 03:06:51;;;;;;;4.38;3.00;;;21.60;93.20;;;;;;4176998;28;20400;-70
2022/04/03 03:08:55;;;;;;;3.67;2.88;;;21.60;93.60;;;;;;4176458;28;20369;-71
2022/04/03 03:11:01;;;;;;;4.30;2.97;;;21.80;93.50;;;;;;4178144;28;20377;-71
2022/04/03 03:13:08;;;;;;;5.65;3.17;;;21.90;93.50;;;;;;4176663;28;20687;-71
2022/04/03 03:15:14;;;;;;;5.03;3.40;;;22.00;93.50;;;;;;4150110;28;20041;-71
2022/04/03 03:17:20;;;;;;;4.50;3.30;;;21.90;93.50;;;;;;4176216;28;20041;-71
2022/04/03 03:19:27;;;;;;;5.30;3.55;;;21.70;93.80;;;;;;4177514;28;20049;-71
2022/04/03 03:21:32;;;;;;;5.15;2.83;;;21.70;93.80;;;;;;4178093;28;20193;-71
2022/04/03 03:23:40;;;;;;;7.45;3.97;;;21.70;93.80;;;;;;4175620;28;20511;-70
2022/04/03 03:25:49;;;;;;;4.47;3.30;;;21.90;93.60;;;;;;4141595;28;20058;-71
2022/04/03 03:27:54;;;;;;;4.22;3.00;;;22.00;93.30;;;;;;4174671;28;20045;-71
2022/04/03 03:30:00;;;;;;;8.27;3.65;;;22.20;93.10;;;;;;4177792;28;20115;-71
2022/04/03 03:32:07;;;;;;;5.65;3.17;;;22.20;93.20;;;;;;4178142;28;20067;-73
2022/04/03 03:34:12;;;;;;;4.28;2.83;;;22.30;93.20;;;;;;4180892;28;20052;-75
2022/04/03 03:36:18;;;;;;;3.85;3.13;;;22.10;93.00;;;;;;4185411;28;20045;-72
2022/04/03 03:38:24;;;;;;;6.28;3.55;;;22.00;92.90;;;;;;4187767;28;20446;-70
2022/04/03 03:40:29;;;;;;;6.85;3.20;;;21.90;93.00;;;;;;4187448;28;20503;-69
2022/04/03 03:42:36;;;;;;;5.72;3.60;;;22.00;93.10;;;;;;4160824;28;20588;-68
2022/04/03 03:44:42;;;;;;;5.55;3.17;;;22.00;93.30;;;;;;4178105;28;20538;-72
2022/04/03 03:46:47;;;;;;;4.70;3.22;;;22.00;92.40;;;;;;4177379;28;20195;-71
2022/04/03 03:48:56;;;;;;;5.05;2.92;;;22.10;92.60;;;;;;4177001;28;20029;-70
2022/04/03 03:51:02;;;;;;;5.22;3.17;;;22.10;93.30;;;;;;4176381;28;20119;-71
2022/04/03 03:53:09;;;;;;;3.78;2.63;;;22.20;93.10;;;;;;4172995;28;20045;-71
2022/04/03 03:55:16;;;;;;;4.82;3.30;;;22.00;92.70;;;;;;4189440;28;20644;-70
2022/04/03 03:57:24;;;;;;;5.05;3.70;;;22.20;93.20;;;;;;4178478;28;20107;-69
2022/04/03 03:59:46;;;;;;;4.93;3.00;;;22.20;93.00;;;;;;4040594;29;20048;-70
2022/04/03 04:02:01;;;;;;;4.32;3.10;;;22.00;93.70;;;;;;4048088;29;20745;-70
2022/04/03 04:04:12;;;;;;;4.45;3.03;;;22.20;93.10;;;;;;4074995;29;20046;-71
2022/04/03 04:06:17;;;;;;;3.90;3.25;;;22.30;93.10;;;;;;4047412;29;20059;-69
2022/04/03 04:08:22;;;;;;;5.20;3.05;;;22.40;92.70;;;;;;4051691;29;20055;-69
2022/04/03 04:10:28;;;;;;;6.72;3.13;;;22.20;92.50;;;;;;4081227;29;20078;-71
2022/04/03 04:12:34;;;;;;;4.65;3.05;;;22.30;92.20;;;;;;4062784;29;20100;-70
2022/04/03 04:14:41;;;;;;;5.00;3.00;;;22.50;92.50;;;;;;4064113;29;20148;-69
2022/04/03 04:16:48;;;;;;;6.80;3.15;;;22.40;91.60;;;;;;4063712;29;20060;-70
2022/04/03 04:18:52;;;;;;;5.07;3.28;;;22.40;91.50;;;;;;4060601;29;20060;-70
2022/04/03 04:21:02;;;;;;;4.28;3.30;;;22.50;91.50;;;;;;4062609;29;20052;-70
2022/04/03 04:23:09;;;;;;;4.63;3.30;;;22.50;92.10;;;;;;4062292;29;20055;-70
2022/04/03 04:25:14;;;;;;;5.75;3.42;;;22.40;91.40;;;;;;4063419;29;20046;-69
2022/04/03 04:27:21;;;;;;;6.90;3.53;;;22.40;92.30;;;;;;4066640;29;20583;-69
2022/04/03 04:29:27;;;;;;;4.30;3.20;;;22.40;91.30;;;;;;4063632;29;20132;-70
2022/04/03 04:31:33;;;;;;;8.25;3.75;;;22.40;91.50;;;;;;4115834;28;20050;-69
2022/04/03 04:33:39;;;;;;;5.68;3.28;;;22.40;92.00;;;;;;4111477;28;20039;-70
2022/04/03 04:35:46;;;;;;;5.45;3.50;;;22.40;91.50;;;;;;4127180;28;20053;-69
2022/04/03 04:37:54;;;;;;;7.03;3.30;;;22.50;91.70;;;;;;4109701;28;20063;-68
2022/04/03 04:40:01;;;;;;;5.13;3.47;;;22.50;92.10;;;;;;4141694;28;20053;-70
2022/04/03 04:42:08;;;;;;;8.38;3.65;;;22.50;91.50;;;;;;4127457;28;20042;-70
2022/04/03 04:44:14;;;;;;;6.05;3.45;;;22.60;91.80;;;;;;4139056;28;20044;-71
2022/04/03 04:46:20;;;;;;;5.30;3.47;;;22.70;91.40;;;;;;4126965;28;20500;-70
2022/04/03 04:48:27;;;;;;;9.07;3.50;;;22.60;91.40;;;;;;4126983;28;20097;-70
2022/04/03 04:50:32;;;;;;;7.68;4.13;;;22.80;91.20;;;;;;4126694;28;20126;-70
2022/04/03 04:52:39;;;;;;;5.07;3.45;;;22.90;90.80;;;;;;4126930;28;20073;-69
2022/04/03 04:54:45;;;;;;;5.80;3.35;;;22.80;90.20;;;;;;4110466;28;20465;-71
2022/04/03 04:56:50;;;;;;;9.90;3.55;;;22.70;90.50;;;;;;4109276;28;20068;-70
2022/04/03 04:58:58;;;;;;;5.45;3.65;;;23.00;90.90;;;;;;4111389;28;20411;-70
2022/04/03 05:01:04;;;;;;;6.15;3.25;;;23.10;90.20;;;;;;4125989;28;20127;-71
2022/04/03 05:03:08;;;;;;;5.00;3.15;;;23.10;89.40;;;;;;4142971;28;20057;-69
2022/04/03 05:05:17;;;;;;;8.15;4.53;;;23.10;90.00;;;;;;4173147;28;20052;-75
2022/04/03 05:07:25;;;;;;;5.50;3.60;;;23.10;90.30;;;;;;4173515;28;20052;-73
2022/04/03 05:09:31;;;;;;;6.00;3.40;;;23.30;90.20;;;;;;4172988;28;20406;-72
2022/04/03 05:11:37;;;;;;;5.03;3.42;;;23.10;90.00;;;;;;4154161;28;20064;-73
2022/04/03 05:13:44;;;;;;;5.72;3.20;;;23.10;89.60;;;;;;4153741;28;21156;-72
2022/04/03 05:15:51;;;;;;;7.90;3.30;;;23.00;90.00;;;;;;4155958;28;20131;-73
2022/04/03 05:17:58;;;;;;;6.40;3.28;;;23.20;90.00;;;;;;4156031;28;20055;-73
2022/04/03 05:20:05;;;;;;;7.68;3.63;;;23.50;89.60;;;;;;4173655;28;20041;-71
2022/04/03 05:22:13;;;;;;;5.32;3.38;;;23.40;88.40;;;;;;4138155;28;20129;-71
2022/04/03 05:24:19;;;;;;;6.50;3.70;;;23.20;88.40;;;;;;4172455;28;20526;-71
2022/04/03 05:26:26;;;;;;;4.30;3.35;;;23.20;89.00;;;;;;4171462;28;20140;-73
2022/04/03 05:28:31;;;;;;;6.22;3.40;;;23.30;89.10;;;;;;4170639;28;20045;-73
2022/04/03 05:30:38;;;;;;;4.72;3.20;;;23.40;89.20;;;;;;4178179;28;20041;-73
2022/04/03 05:32:45;;;;;;;7.25;3.35;;;23.40;88.10;;;;;;4160248;28;20073;-73
2022/04/03 05:34:50;;;;;;;4.10;3.20;;;23.50;87.80;;;;;;4178884;28;20469;-73
2022/04/03 05:36:57;;;;;;;5.25;2.95;;;23.60;88.80;;;;;;4179157;28;20053;-74
2022/04/03 05:39:05;;;;;;;6.88;4.03;;;23.80;88.70;;;;;;4178902;28;20072;-73
2022/04/03 05:41:09;;;;;;;6.95;3.38;;;23.90;87.30;;;;;;4160933;28;20443;-73
2022/04/03 05:43:20;;;;;;;4.07;3.20;;;23.80;88.00;;;;;;4178163;28;20559;-75
2022/04/03 05:45:42;;;;;;;5.72;3.08;;;24.00;87.30;;;;;;4178982;28;20570;-73
2022/04/03 05:48:24;;;;;;;8.00;3.30;;;23.70;88.10;;;;;;4143046;28;20068;-73
2022/04/03 05:50:38;;;;;;;5.85;3.28;;;23.70;88.20;;;;;;4176468;28;20531;-73
2022/04/03 05:52:52;;;;;;;5.45;3.10;;;23.80;87.40;;;;;;4154802;28;20057;-75
2022/04/03 05:54:57;;;;;;;5.55;3.25;;;23.70;87.90;;;;;;4176310;28;20037;-76
2022/04/03 05:57:09;;;;;;;5.05;3.45;;;24.00;88.90;;;;;;4157903;28;20057;-76
2022/04/03 05:59:19;;;;;;;6.30;3.60;;;24.10;87.90;;;;;;4173532;28;20036;-73
2022/04/03 06:01:24;;;;;;;5.90;3.60;;;24.00;87.60;;;;;;4175125;28;20037;-74
2022/04/03 06:03:33;;;;;;;4.72;3.38;;;23.90;88.50;;;;;;4126883;28;20082;-74
2022/04/03 06:05:38;;;;;;;6.28;3.50;;;24.00;90.30;;;;;;4177531;28;20041;-74
2022/04/03 06:07:43;;;;;;;6.65;3.58;;;23.80;87.60;;;;;;4160173;28;20063;-76
2022/04/03 06:09:52;;;;;;;7.25;3.50;;;24.00;89.00;;;;;;4175816;28;20052;-73
2022/04/03 06:11:57;;;;;;;7.05;3.67;;;23.60;87.90;;;;;;4192929;28;20048;-72
2022/04/03 06:14:05;;;;;;;6.20;3.70;;;23.80;88.90;;;;;;4175789;28;20049;-73
2022/04/03 06:16:15;;;;;;;5.10;3.50;;;23.90;88.10;;;;;;4142030;28;20076;-71
2022/04/03 06:18:22;;;;;;;5.25;3.58;;;23.80;87.80;;;;;;4159177;28;20064;-72
2022/04/03 06:20:30;;;;;;;6.07;3.60;;;23.90;89.00;;;;;;4175556;28;20043;-72
2022/04/03 06:22:39;;;;;;;7.07;3.38;;;24.00;87.90;;;;;;4172788;28;20503;-72
2022/04/03 06:24:44;;;;;;;7.20;3.50;;;24.10;87.80;;;;;;4179946;28;20049;-73
2022/04/03 06:26:48;;;;;;;6.43;3.78;;;24.00;88.50;;;;;;4178652;28;20041;-72
2022/04/03 06:28:56;;;;;;;9.98;4.35;;;23.90;89.50;;;;;;4180188;28;20065;-72
2022/04/03 06:31:06;;;;;;;5.55;3.67;;;24.10;89.80;;;;;;4146561;28;20473;-74
2022/04/03 06:33:11;;;;;;;5.78;3.75;;;24.00;87.60;;;;;;4175310;28;20057;-73
2022/04/03 06:35:15;;;;;;;7.78;4.00;;;23.90;88.10;;;;;;4178537;28;20136;-73
2022/04/03 06:37:20;;;;;;;7.30;3.55;;;23.80;87.40;;;;;;4178293;28;20456;-72
2022/04/03 06:39:24;;;;;;;8.00;3.90;;;23.60;88.70;;;;;;4176577;28;20365;-72
2022/04/03 06:41:33;;;;;;;5.03;3.53;;;23.70;88.90;;;;;;4159405;28;20049;-76
2022/04/03 06:43:37;;;;;;;5.93;3.65;;;23.90;87.90;;;;;;4177269;28;20545;-75
2022/04/03 06:45:42;;;;;;;7.88;4.13;;;24.00;87.90;;;;;;4180158;28;20109;-72
2022/04/03 06:47:57;;;;;;;5.57;3.60;;;23.70;87.90;;;;;;4159128;28;20045;-72
2022/04/03 06:50:03;;;;;;;7.85;3.92;;;23.80;88.60;;;;;;4187084;28;20377;-72
2022/04/03 06:52:11;;;;;;;7.55;4.10;;;23.70;88.00;;;;;;4180722;28;20069;-73
2022/04/03 06:54:15;;;;;;;10.23;3.90;;;23.60;87.80;;;;;;4179252;28;20056;-73
2022/04/03 06:56:20;;;;;;;6.28;4.45;;;23.80;88.50;;;;;;4179896;28;20043;-73
2022/04/03 06:58:25;;;;;;;7.47;4.20;;;23.90;88.80;;;;;;4163647;28;20056;-74
2022/04/03 07:00:37;;;;;;;8.77;4.68;;;23.90;87.80;;;;;;4172991;28;20139;-72
2022/04/03 07:02:42;;;;;;;8.02;3.70;;;23.80;88.40;;;;;;4178817;28;20036;-71
2022/04/03 07:04:46;;;;;;;7.32;4.07;;;23.60;88.40;;;;;;4177451;28;20045;-73
2022/04/03 07:06:53;;;;;;;9.85;4.57;;;23.70;88.30;;;;;;4175411;28;20052;-71
2022/04/03 07:08:57;;;;;;;9.85;4.50;;;23.70;88.50;;;;;;4192735;28;20670;-72
2022/04/03 07:11:03;;;;;;;6.80;4.50;;;23.70;89.30;;;;;;4177116;28;20052;-70
2022/04/03 07:13:11;;;;;;;6.65;4.30;;;23.60;88.90;;;;;;4176665;28;20068;-71
2022/04/03 07:15:16;;;;;;;4.80;4.10;;;23.80;89.50;;;;;;4156750;28;20045;-71
2022/04/03 07:17:20;;;;;;;6.40;4.53;;;23.70;88.70;;;;;;4177524;28;20049;-72
2022/04/03 07:19:29;;;;;;;7.88;4.30;;;23.90;89.80;;;;;;4177324;28;20057;-73
2022/04/03 07:21:33;;;;;;;8.88;4.80;;;23.80;88.70;;;;;;4193730;28;20056;-72
2022/04/03 07:23:38;;;;;;;9.35;5.15;;;23.80;87.70;;;;;;4175616;28;20090;-73
2022/04/03 07:25:46;;;;;;;9.23;4.38;;;23.80;88.40;;;;;;4163338;28;20543;-71
2022/04/03 07:27:51;;;;;;;6.93;4.75;;;23.70;89.20;;;;;;4177128;28;20045;-72
2022/04/03 07:29:55;;;;;;;7.80;4.30;;;23.80;89.20;;;;;;4174194;28;20401;-71
2022/04/03 07:32:03;;;;;;;6.82;4.90;;;23.80;88.00;;;;;;4174072;28;20063;-72
2022/04/03 07:34:07;;;;;;;8.77;4.60;;;23.80;88.90;;;;;;4166528;28;20045;-71
2022/04/03 07:36:12;;;;;;;7.18;4.50;;;23.90;89.00;;;;;;4179849;28;20644;-72
2022/04/03 07:38:19;;;;;;;9.77;5.13;;;24.00;89.70;;;;;;4176893;28;20067;-73
2022/04/03 07:40:24;;;;;;;10.52;5.38;;;23.90;89.50;;;;;;4170768;28;20049;-72
2022/04/03 07:42:50;;;;;;;10.90;5.00;;;24.00;89.00;;;;;;4179865;28;20099;-68
2022/04/03 07:44:58;;;;;;;8.32;4.82;;;23.70;88.30;;;;;;4178208;28;20067;-72
2022/04/03 07:47:03;;;;;;;9.52;4.72;;;23.80;88.30;;;;;;4178042;28;20041;-69
2022/04/03 07:49:08;;;;;;;9.15;4.35;;;23.80;87.50;;;;;;4195447;28;20414;-72
2022/04/03 07:51:16;;;;;;;8.27;4.55;;;23.90;87.80;;;;;;4175800;28;20662;-71
2022/04/03 07:53:21;;;;;;;6.55;4.45;;;24.00;88.40;;;;;;4179095;28;20049;-71
2022/04/03 07:55:25;;;;;;;7.53;3.90;;;24.00;88.10;;;;;;4178159;28;20047;-71
2022/04/03 07:57:32;;;;;;;6.80;4.50;;;24.00;87.90;;;;;;4195509;28;20132;-71
2022/04/03 07:59:37;;;;;;;8.00;4.53;;;24.00;87.50;;;;;;4178912;28;20041;-71
2022/04/03 08:01:44;;;;;;;7.80;4.70;;;24.10;87.50;;;;;;4176555;28;20111;-72
2022/04/03 08:03:52;;;;;;;7.60;4.65;;;24.10;86.30;;;;;;4173130;28;20052;-72
2022/04/03 08:05:58;;;;;;;5.28;4.20;;;24.10;86.80;;;;;;4178065;28;20392;-72
2022/04/03 08:08:02;;;;;;;7.35;4.22;;;24.10;85.80;;;;;;4190810;28;20067;-71
2022/04/03 08:10:10;;;;;;;7.45;4.22;;;24.00;86.20;;;;;;4177905;28;20053;-71
2022/04/03 08:12:16;;;;;;;7.43;4.30;;;23.90;86.10;;;;;;4175639;28;20045;-70
2022/04/03 08:14:22;;;;;;;8.25;4.30;;;23.90;87.20;;;;;;4178181;28;20041;-71
2022/04/03 08:16:31;;;;;;;8.15;3.88;;;23.90;85.90;;;;;;4178956;28;20068;-70
2022/04/03 08:18:37;;;;;;;7.97;3.83;;;23.90;87.00;;;;;;4192557;28;20080;-71
2022/04/03 08:20:43;;;;;;;7.22;3.80;;;24.00;86.90;;;;;;4177876;28;20049;-71
2022/04/03 08:22:51;;;;;;;8.40;3.90;;;24.00;86.80;;;;;;4193003;28;20454;-74
2022/04/03 08:24:55;;;;;;;9.80;4.10;;;24.00;86.20;;;;;;4177822;28;20044;-73
2022/04/03 08:27:07;;;;;;;5.95;4.28;;;24.10;86.40;;;;;;4179293;28;20048;-73
2022/04/03 08:29:13;;;;;;;7.63;4.03;;;24.10;86.70;;;;;;4178031;28;20041;-73
2022/04/03 08:31:18;;;;;;;8.38;3.97;;;24.00;86.50;;;;;;4176125;28;20095;-73
2022/04/03 08:33:23;;;;;;;7.82;4.00;;;24.00;86.00;;;;;;4192595;28;20462;-73
2022/04/03 08:35:32;;;;;;;7.15;4.00;;;24.00;85.50;;;;;;4169667;28;20906;-73
2022/04/03 08:37:37;;;;;;;6.65;4.30;;;24.00;85.40;;;;;;4176317;28;20041;-73
2022/04/03 08:39:41;;;;;;;6.35;3.97;;;24.00;85.50;;;;;;4178033;28;20048;-73
2022/04/03 08:41:49;;;;;;;11.27;4.20;;;24.00;85.50;;;;;;4177350;28;20069;-74
2022/04/03 08:43:54;;;;;;;7.38;4.10;;;24.10;85.80;;;;;;4187449;28;20040;-73
2022/04/03 08:45:58;;;;;;;7.03;3.88;;;24.20;85.80;;;;;;4172663;28;20036;-73
2022/04/03 08:48:07;;;;;;;6.75;4.30;;;24.20;86.00;;;;;;4158658;28;20056;-74
2022/04/03 08:50:15;;;;;;;7.05;4.43;;;24.30;85.30;;;;;;4177688;28;20064;-73
2022/04/03 08:52:20;;;;;;;10.15;4.38;;;24.20;84.90;;;;;;4158885;28;20455;-74
2022/04/03 08:54:28;;;;;;;9.00;4.25;;;24.10;85.70;;;;;;4189882;28;20052;-75
2022/04/03 08:56:33;;;;;;;7.20;4.20;;;24.30;85.40;;;;;;4157802;28;20045;-68
2022/04/03 08:58:37;;;;;;;8.15;4.35;;;24.30;85.00;;;;;;4147329;28;20073;-74
2022/04/03 09:00:42;;;;;;;6.20;4.25;;;24.20;84.70;;;;;;4170126;28;20040;-72
2022/04/03 09:02:47;;;;;;;8.55;4.82;;;24.30;84.80;;;;;;4174330;28;20037;-72
2022/04/03 09:04:52;;;;;;;10.55;4.82;;;24.30;85.20;;;;;;4185358;28;21001;-73
2022/04/03 09:06:59;;;;;;;7.20;4.43;;;24.40;85.40;;;;;;4153063;28;20552;-73
2022/04/03 09:09:04;;;;;;;8.68;4.70;;;24.50;84.60;;;;;;4171986;28;20069;-72
2022/04/03 09:11:09;;;;;;;9.93;4.40;;;24.30;83.90;;;;;;4178607;28;20480;-72
2022/04/03 09:13:23;;;;;;;7.30;4.57;;;24.40;84.40;;;;;;4191847;28;20052;-67
2022/04/03 09:15:29;;;;;;;10.30;5.10;;;24.40;84.30;;;;;;4152384;28;20048;-72
2022/04/03 09:17:37;;;;;;;12.57;5.30;;;24.40;84.20;;;;;;4163309;28;20111;-70
2022/04/03 09:19:41;;;;;;;13.98;5.20;;;24.40;84.50;;;;;;4177731;28;20057;-72
2022/04/03 09:21:46;;;;;;;11.23;5.60;;;24.40;84.60;;;;;;4176959;28;20645;-73
2022/04/03 09:24:02;;;;;;;7.57;4.82;;;24.50;85.10;;;;;;4171132;28;20396;-72
2022/04/03 09:26:16;;;;;;;12.75;6.40;;;24.60;85.70;;;;;;4175214;28;20052;-72
2022/04/03 09:28:20;;;;;;;8.85;4.50;;;24.60;85.80;;;;;;4175217;28;20055;-72
2022/04/03 09:30:32;;;;;;;10.27;4.50;;;24.50;86.00;;;;;;4156275;28;20045;-74
2022/04/03 09:32:50;;;;;;;8.48;4.18;;;24.40;86.40;;;;;;4121592;28;20074;-73
2022/04/03 09:34:58;;;;;;;10.80;4.72;;;24.40;87.60;;;;;;4172755;28;20048;-73
2022/04/03 09:37:07;;;;;;;8.20;4.20;;;24.30;86.70;;;;;;4175896;28;20041;-72
2022/04/03 09:39:18;;;;;;;9.10;4.25;;;24.30;86.90;;;;;;4152958;28;20371;-71
2022/04/03 09:41:22;;;;;;;8.15;5.28;;;24.10;87.60;;;;;;4180863;28;20434;-71
2022/04/03 09:43:28;;;;;;;14.55;5.13;;;24.10;88.00;;;;;;4163738;28;20038;-70
2022/04/03 09:45:35;;;;;;;10.60;4.30;;;24.20;88.20;;;;;;4181604;28;20029;-70
2022/04/03 09:47:39;;;;;;;8.50;4.57;;;24.20;87.50;;;;;;4180120;28;20049;-72
2022/04/03 09:49:54;;;;;;;8.10;4.82;;;24.20;87.50;;;;;;4148030;28;20076;-73
2022/04/03 09:51:59;;;;;;;11.73;4.82;;;24.30;88.20;;;;;;4183889;28;20134;-72
2022/04/03 09:54:03;;;;;;;12.20;5.13;;;24.30;88.10;;;;;;4141990;28;20045;-71
2022/04/03 09:56:09;;;;;;;8.48;4.50;;;24.40;88.90;;;;;;4171845;28;20098;-71
2022/04/03 09:58:17;;;;;;;8.23;4.75;;;24.40;88.10;;;;;;4173296;28;20075;-71
2022/04/03 10:00:34;;;;;;;8.02;4.53;;;24.30;87.10;;;;;;4177711;28;20415;-71
2022/04/03 10:02:44;;;;;;;8.48;4.70;;;24.30;87.70;;;;;;4176638;28;20429;-71
2022/04/03 10:04:55;;;;;;;7.22;4.38;;;24.30;87.80;;;;;;4169749;28;20060;-73
2022/04/03 10:07:00;;;;;;;8.45;5.05;;;24.30;88.60;;;;;;4199543;28;20060;-71
2022/04/03 10:09:07;;;;;;;12.63;4.78;;;24.30;88.40;;;;;;4175613;28;20107;-72
2022/04/03 10:11:15;;;;;;;14.70;5.10;;;24.40;88.60;;;;;;4197751;28;20063;-72
2022/04/03 10:13:20;;;;;;;10.05;5.47;;;24.30;88.20;;;;;;4181193;28;20472;-71
2022/04/03 10:15:28;;;;;;;12.13;5.45;;;24.30;88.20;;;;;;4181036;28;20053;-71
2022/04/03 10:17:36;;;;;;;8.57;5.13;;;24.20;88.30;;;;;;4181112;28;20041;-71
2022/04/03 10:19:42;;;;;;;11.73;5.90;;;24.20;88.30;;;;;;4176670;28;20075;-72
2022/04/03 10:21:49;;;;;;;13.38;6.05;;;24.30;88.40;;;;;;4160435;28;20041;-70
2022/04/03 10:24:03;;;;;;;10.30;5.03;;;24.40;88.60;;;;;;4162661;28;20408;-71
2022/04/03 10:26:08;;;;;;;8.23;5.70;;;24.30;87.80;;;;;;4198927;28;20049;-71
2022/04/03 10:28:13;;;;;;;8.30;5.25;;;24.30;88.40;;;;;;4198473;28;20039;-71
2022/04/03 10:30:33;;;;;;;10.43;5.25;;;24.20;88.20;;;;;;4162849;28;20061;-71
2022/04/03 10:32:40;;;;;;;10.40;5.03;;;24.20;88.40;;;;;;4173247;28;20037;-70
2022/04/03 10:34:50;;;;;;;9.75;5.57;;;24.20;88.70;;;;;;4176906;28;20049;-72
2022/04/03 10:36:58;;;;;;;9.23;6.13;;;24.30;89.00;;;;;;4180170;28;20443;-72
2022/04/03 10:39:05;;;;;;;15.57;8.48;;;24.20;88.60;;;;;;4176345;28;20049;-71
2022/04/03 10:41:31;;;;;;;12.60;6.90;;;24.30;89.70;;;;;;4151583;28;20117;-71
2022/04/03 10:43:40;;;;;;;22.10;12.05;;;24.30;89.00;;;;;;4165590;28;20136;-66
2022/04/03 10:45:46;;;;;;;12.90;7.60;;;24.20;89.50;;;;;;4172646;28;20033;-69
2022/04/03 10:47:51;;;;;;;10.45;6.35;;;24.20;89.70;;;;;;4177969;28;20049;-72
2022/04/03 10:50:01;;;;;;;17.25;7.85;;;24.10;90.00;;;;;;4174587;28;20047;-71
2022/04/03 10:52:09;;;;;;;12.18;6.35;;;24.10;90.20;;;;;;4169980;28;20045;-71
2022/04/03 10:54:14;;;;;;;10.07;6.18;;;24.10;90.10;;;;;;4171023;28;20045;-72
2022/04/03 10:56:24;;;;;;;7.13;5.15;;;24.20;90.10;;;;;;4125262;28;20066;-71
2022/04/03 10:58:49;;;;;;;7.88;5.38;;;24.10;90.00;;;;;;4117524;28;20898;-71